Карточка аэропорта UAKK

Внимание!
Информация на этой странице в стадии наполнения.
Если вы не увидели какой-то информации, или заметили неточность - пожалуйста сообщите нам!
Спасибо!
Команда RU-STAFF
Название аэропортаКараганда
Название аэропорта (англ.)Karaganda
Превышение1768 ft. (538.9 m.)
Координаты49°40.302', 73°20.118'
Высота перехода10000
Эшелон переходаby ATC
Коды ответчика0630-0637, 7220-7227
Зона ОрВДАстана РПИ (UACN)
Данные METARUAKK 181830Z VRB01MPS 5000 -SHRA BKN043CB 15/14 Q1004 NOSIG RMK QFE706/0942
Проноз погоды (TAF)UAKK 181704Z 1818/1918 17010MPS 5000 -RA BKN015 BKN050 TX18/1909Z TN11/1901Z TEMPO 1818/1823 VRB20MPS 1000 TSRA SQ BKN003 BKN011CB BECMG 1823/1901 23010MPS TEMPO 1823/1906 27013MPS 3100 -SHRA BKN005 BKN015CB BECMG 1906/1908 9999 NSW TEMPO 1906/1915 23014MPS 5000 -SHRA BKN015CB
NOTAMshow/hide NOTAM
AWOS   TABLE

Информация о ВПП

ВПП Длина ВПП (м.) Покрытие Курс ВПП Частота ILS
053601Железобетон50109.9
233601Железобетон230111.7

Диспетчерские позиции




Спутниковое изображение